Terminal Aerodrome Forecast
Issued by NWS Northern Indiana

Home | Current Version | Previous Version | Text Only | Print | Product List | Glossary Off
Versions: 1 2 3 4 5 6 7 8 9 10 11 12 13 14 15 16

000
FTUS43 KIWX 302300
TAFFWA
TAF
KFWA 302335Z 3100/3124 21011KT P6SM SCT040 BKN250
     FM310600 21008KT 5SM BR BKN040
     FM311100 22003KT 2SM BR BKN015
     FM311500 23007KT P6SM BKN025=

USA.gov is the U.S. government's official web portal to all federal, state and local government web resources and services.